Aérodrome :
LOGIN :

S'inscrire | Disclaimer

   EN    FR    IT 

 










Légende :    VFR   VFR Marginal   IFR   IFR Intensif   IFR Très Intensif
Visi : 
Plafond : 
>= 8 km
>= 3000ft
5 à 8 km
1000 à 3000 ft
1500m à 5 km
500 à 1000 ft
800 à 1500m
200 à 500 ft
< 800m
< 200 ft
Symboles :   Orages  Brouillard  Fortes neiges  Fortes précipitations  Vent > 20 kt
SIGMETs :   Divers  Orages  Givrage  Turbulence  Onde Orograph.  Cendres Volcan.







- Altitude de l'aérodrome : 364 ft
- Voir les cartes d'approche


LFAQ - Albert Bray

DERNIER METAR :
  • 280800Z AUTO 25003KT 220V290 9000 SCT009 BKN056 OVC074 08/06 Q1016 TEMPO 4000 SHRA BKN006

METARs EXPIRÉS :
  • 280730Z AUTO 29005KT 240V300 9000 SCT006 BKN018 OVC070 08/06 Q1016 TEMPO 4000 SHRA BKN006
  • 280700Z AUTO 25006KT 9000 FEW006 SCT037 BKN066 07/06 Q1015 TEMPO 4000 SHRA BKN006
  • 280630Z AUTO 24005KT 7000 FEW005 SCT012 06/05 Q1015 TEMPO 4000 SHRA BKN006
  • 280600Z AUTO 26004KT 5000 BR BKN005 BKN012 BKN022 05/04 Q1015 TEMPO SHRA
  • 280530Z AUTO 20004KT 6000 SCT021 BKN082 04/04 Q1015 TEMPO 4000 SHRA BKN006

TAF TAF LFAQ
Valide du 28 à 06h jusqu'au 28 à 15h UTC


280500Z 2806/2815 22005KT 9999 BKN040
TEMPO 2806/2815 4000 SHRA BKN013
PROB40
TEMPO 2806/2812 BKN006
Pas de NOTAMs connus pour ce terrain.



MET'MAP, la Météo Aéronautique d'un coup d'oeil ! - Copyright ORBIFLY Décembre 2007 - Disclaimer

ORBIFLY MET'MAP TEAM :

Programmation & Développement : Alexandra Zaïnal
Conception & Développement : Baudouin d'Aumeries
Co-Programmation & Développement : Marc-Olivier Méhu
Soutien technique & logistique : Manuel Goepfert

Contact : metmap@orbifly.com




SOURCES & CREDITS :

   NOAA